Tiempo atmosférico en la estación meteorológica de Badajoz Aeropuerto, Badajoz (185 m.)



Fecha
DESCASC
Temp. máxima en grados centígrados (hora)
DESCASC
Temp. mínima en grados centígrados (hora)
DESCASC
Temp. media en grados centígrados
DESCASC
Racha de viento máxima en m/sg (hora)
DESCASC
Velocidad máxima media en intervalos de 10 minutos(hora)
DESCASC
Precipitaciones diarias en mm
DESCASC
Precipitaciones de 00:00 a 06:00 en mm
DESCASC
Precipitaciones de 06:00 a 12:00 en mm
DESCASC
Precipitaciones de 12:00 a 18:00 en mm
DESCASC
Precipitaciones de 18:00 a 24:00 en mm
DESCASC
15-08-2019 39.2 (18:40) 19.7 (07:30) 29.5 8.33 (22:10) 5.56 (21:40) 0 0 0 0 0
14-08-2019 37.2 (18:10) 16.4 (00:00) 26.8 7.5 (22:00) 5 (22:00) 0 0 0 0 0
13-08-2019 34.9 (18:30) 16.2 (00:00) 25.6 6.39 (23:00) 3.33 (23:59) 0 0 0 0 0
12-08-2019 31.4 (18:00) 14.1 (00:00) 22.8 10.28 (12:40) 6.67 (12:50) 0 0 0 0 0
11-08-2019 29.8 (18:20) 15.4 (00:00) 22.6 10.28 (19:00) 6.67 (19:40) 0 0 0 0 0
10-08-2019 32 (18:40) 16.8 (00:00) 24.4 11.94 (22:30) 7.5 (22:30) 0 0 0 0 0
09-08-2019 28.1 (13:00) 22.6 (00:00) 25.4 11.67 (16:30) 7.5 (14:30) 0 0 0 0 0
08-08-2019 35.3 (17:30) 19 (00:00) 27.1 11.11 (17:30) 5.83 (22:30) 0 0 0 0 0
07-08-2019 28.9 (19:50) 19.9 (00:00) 24.4 7.22 (12:20) 4.44 (12:10) 0 0 0 0 0
06-08-2019 35.4 (17:30) 17.8 (00:00) 26.6 10.28 (19:00) 7.5 (19:00) 0 0 0 0 0
05-08-2019 35.5 (18:20) 14.9 (00:00) 25.2 8.89 (16:40) 5 (15:30) 0 0 0 0 0
04-08-2019 35.6 (17:20) 17.3 (00:00) 26.4 9.44 (19:00) 6.39 (19:00) 0 0 0 0 0
03-08-2019 36.3 (18:00) 15.5 (00:00) 25.9 9.72 (22:40) 5.56 (22:20) 0 0 0 0 0
02-08-2019 35.2 (20:00) 14.7 (00:00) 25 7.22 (02:40) 4.44 (01:40) 0 0 0 0 0
01-08-2019 35.6 (18:30) 16.6 (00:00) 26.1 9.44 (16:20) 5 (19:30) 0 0 0 0 0
31-07-2019 37 (17:20) 15.9 (00:00) 26.4 9.72 (20:20) 6.67 (20:20) 0 0 0 0 0
30-07-2019 32.5 (18:30) 14.7 (00:00) 23.6 10 (12:50) 5 (13:00) 0 0 0 0 0
29-07-2019 32.2 (17:40) 15.5 (00:00) 23.9 12.22 (20:00) 6.11 (20:00) 0 0 0 0 0
28-07-2019 33.1 (19:10) 16 (00:00) 24.5 10.28 (18:20) 5.56 (23:10) 0 0 0 0 0
27-07-2019 28.8 (18:50) 16.7 (00:00) 22.8 10.28 (19:10) 7.5 (19:30) 0 0 0 0 0
26-07-2019 30.8 (18:10) 16.2 (00:00) 23.5 11.39 (17:00) 6.67 (20:10) 0 0 0 0 0
25-07-2019 34.4 (18:20) 19 (00:00) 26.7 12.78 (22:40) 8.33 (21:50) 0 0 0 0 0
24-07-2019 38.4 (17:20) 19.8 (00:00) 29.1 9.44 (19:00) 6.39 (19:00) 0 0 0 0 0
23-07-2019 37.6 (19:10) 21.7 (00:00) 29.6 9.44 (15:40) 6.11 (20:10) 0 0 0 0 0
22-07-2019 39.6 (17:50) 19.2 (00:00) 29.4 7.5 (14:20) 4.44 (23:20) 0 0 0 0 0
21-07-2019 38.5 (18:00) 16.2 (00:00) 27.4 7.78 (00:10) 5.28 (16:20) 0 0 0 0 0
20-07-2019 38.7 (18:10) 18.3 (00:00) 28.5 8.89 (22:50) 5 (22:10) 0 0 0 0 0
19-07-2019 39.5 (18:30) 18.8 (00:00) 29.1 9.44 (22:00) 6.67 (22:00) 0 0 0 0 0

Gráficas

Temp. máximas Temp. mínimas Temp. medias Precipitaciones Rachas de viento máximas Velocidades máximas media en intervalos de 10 minutos

Datos horarios

Fecha y hora oficial Temperatura (ºC) Velocidad del viento (km/h) Dirección del viento Racha (km/h) Dirección de racha Precipitación (mm) Presión (hPa) Tendencia (hPa) Humedad (%)
2019-08-17 23:00:00 28.7 17 Oeste 31 Oeste 0 991 1.2 41
2019-08-17 22:00:00 31.4 6 Oeste 15 Oeste 0 990.1 -0.1 23
2019-08-17 21:00:00 34.3 10 Oeste 19 Oeste 0 989.9 -0.7 21
2019-08-17 20:00:00 36.8 7 Sudoeste 21 Oeste 0 989.8 -1.2 13
2019-08-17 19:00:00 38 8 Sudoeste 24 Noroeste 0 990.2 -1.5 11
2019-08-17 18:00:00 38.4 12 Oeste 31 Oeste 0 990.6 -1.9 12
2019-08-17 17:00:00 38 13 Oeste 29 Oeste 0 991 -2.3 11
2019-08-17 16:00:00 36.4 12 Oeste 24 Oeste 0 991.7 -2.3 17
2019-08-17 15:00:00 33.3 9 Noroeste 18 Sudoeste 0 992.5 -1.9 30
2019-08-17 14:00:00 30.5 8 Noroeste 15 Noroeste 0 993.3 -1.3 36
2019-08-17 13:00:00 27.6 6 Noroeste 13 Noroeste 0 994 -0.8 45
2019-08-17 12:00:00 25.2 5 Oeste 10 Oeste 0 994.4 -0.2 53
2019-08-17 11:00:00 22 4 Oeste 13 Oeste 0 994.6 0.2 64
2019-08-17 10:00:00 19.3 6 Noroeste 12 Noroeste 0 994.8 0.8 77
2019-08-17 09:00:00 18.3 5 Oeste 9 Oeste 0 994.6 0.9 76
2019-08-17 08:00:00 16.3 3 Sur 6 Oeste 0 994.4 0.2 80
2019-08-17 07:00:00 16.8 3 Sudoeste 12 Oeste 0 994 -0.2 77
2019-08-17 06:00:00 17.7 5 Oeste 11 Oeste 0 993.7 -0.6 70
2019-08-17 05:00:00 18.8 6 Oeste 16 Oeste 0 994.2 0 71
2019-08-17 04:00:00 19.3 10 Oeste 17 Oeste 0 994.2 0.1 68
2019-08-17 03:00:00 21.4 8 Oeste 18 Oeste 0 994.3 0.5 58
2019-08-17 02:00:00 22.6 13 Oeste 21 Oeste 0 994.2 0.6 52
2019-08-17 01:00:00 24.6 10 Oeste 22 Oeste 0 994.1 1.3 46
2019-08-17 00:00:00 26.2 13 Oeste 24 Oeste 0 993.8 1.4 41
2019-08-16 23:00:00 28.5 13 Oeste 22 Oeste 0 993.6 1.6 33
2019-08-16 22:00:00 30.1 12 Oeste 24 Oeste 0 992.8 0.8 30
2019-08-16 21:00:00 33.3 15 Oeste 27 Oeste 0 992.4 0.1 25
2019-08-16 20:00:00 36.5 16 Oeste 29 Oeste 0 992 -0.8 20
2019-08-16 19:00:00 37.7 17 Oeste 35 Oeste 0 992 -1.3 19
2019-08-16 18:00:00 38.3 18 Oeste 30 Oeste 0 992.3 -1.6 20
2019-08-16 17:00:00 37.9 17 Oeste 30 Noroeste 0 992.8 -1.8 22
2019-08-16 16:00:00 37.1 15 Noroeste 32 Noroeste 0 993.3 -1.8 25
2019-08-16 15:00:00 35.3 15 Noroeste 27 Noroeste 0 993.9 -1.5 29
2019-08-16 14:00:00 33.4 10 Noroeste 23 Oeste 0 994.6 -0.7 34
2019-08-16 13:00:00 31.8 6 Oeste 14 Noroeste 0 995.1 -0.4 37
2019-08-16 12:00:00 28.7 7 Oeste 16 Oeste 0 995.4 0 44
2019-08-16 11:00:00 26.2 9 Oeste 15 Oeste 0 995.3 0.1 51
2019-08-16 10:00:00 23.3 11 Oeste 16 Noroeste 0 995.5 0.9 59
2019-08-16 09:00:00 21.2 8 Oeste 12 Oeste 0 995.4 0.9 65
2019-08-16 08:00:00 19.7 4 Sudoeste 10 Oeste 0 995.2 0.7 69
2019-08-16 07:00:00 20.1 5 Sudoeste 11 Oeste 0 994.6 -0.1 68
2019-08-16 06:00:00 21.1 6 Sudoeste 16 Oeste 0 994.5 -0.3 65
2019-08-16 05:00:00 21.9 6 Oeste 16 Oeste 0 994.5 -0.5 63
2019-08-16 04:00:00 22.5 11 Oeste 18 Oeste 0 994.7 -0.1 62
2019-08-16 03:00:00 24.1 10 Oeste 19 Oeste 0 994.8 0.2 57
2019-08-16 02:00:00 24.9 10 Oeste 21 Oeste 0 995 0.7 53
2019-08-16 01:00:00 26.2 9 Oeste 22 Oeste 0 994.8 1.3 48
2019-08-16 00:00:00 27.8 12 Oeste 25 Oeste 0 994.6 1.7 40
2019-08-15 23:00:00 29.7 16 Oeste 30 Noroeste 0 994.3 1.7 34
2019-08-15 22:00:00 31.8 12 Oeste 28 Oeste 0 993.5 0.6 31
2019-08-15 21:00:00 35.5 16 Oeste 26 Oeste 0 992.9 -0.3 24
2019-08-15 20:00:00 38.3 5 Oeste 16 Sudoeste 0 992.6 -1 19
2019-08-15 19:00:00 38.8 8 Oeste 20 Noroeste 0 992.9 -1.5 20
2019-08-15 18:00:00 38.4 10 Oeste 20 Noroeste 0 993.2 -1.7 20
2019-08-15 17:00:00 38.4 10 Oeste 20 Noroeste 0 993.6 -1.8 20
2019-08-15 16:00:00 38.1 9 Oeste 20 Oeste 0 994.4 -1.4 20
2019-08-15 15:00:00 36.9 8 Oeste 19 Noroeste 0 994.9 -1.4 25
2019-08-15 14:00:00 35 7 Oeste 15 Noroeste 0 995.4 -1 31
2019-08-15 13:00:00 32.4 5 Sudoeste 14 Noroeste 0 995.8 -0.6 39
2019-08-15 12:00:00 29.4 5 Noroeste 13 Noroeste 0 996.3 -0.1 46
2019-08-15 11:00:00 26.6 5 Oeste 14 Oeste 0 996.4 0.3 57
2019-08-15 10:00:00 23.6 11 Oeste 17 Noroeste 0 996.4 0.6 67
2019-08-15 09:00:00 21.6 7 Oeste 12 Oeste 0 996.4 0.7 73
2019-08-15 08:00:00 19.8 7 Sudoeste 10 Oeste 0 996.1 0.7 76
2019-08-15 07:00:00 20.1 5 Sudoeste 12 Oeste 0 995.8 0.4 74
2019-08-15 06:00:00 21.2 7 Oeste 15 Oeste 0 995.7 0.1 73
2019-08-15 05:00:00 21.6 10 Oeste 18 Oeste 0 995.4 -0.4 72
2019-08-15 04:00:00 22 10 Oeste 17 Oeste 0 995.4 -0.4 70
2019-08-15 03:00:00 23.2 8 Oeste 17 Oeste 0 995.6 -0.2 65
2019-08-15 02:00:00 23.8 9 Oeste 19 Oeste 0 995.8 0.4 63
2019-08-15 01:00:00 25.4 12 Oeste 19 Oeste 0 995.8 1.1 57
2019-08-15 00:00:00 26.9 14 Oeste 22 Oeste 0 995.8 1.7 48
2019-08-14 23:00:00 28.7 15 Oeste 24 Oeste 0 995.4 1.5 37
2019-08-14 22:00:00 30.5 18 Oeste 27 Oeste 0 994.7 0.4 30
2019-08-14 21:00:00 33.9 10 Oeste 16 Oeste 0 994.1 -0.5 21
2019-08-14 20:00:00 36.3 11 Oeste 19 Noroeste 0 993.9 -1.1 15
2019-08-14 19:00:00 37.2 10 Oeste 20 Oeste 0 994.3 -1.4 15
2019-08-14 18:00:00 37.1 8 Oeste 24 Noroeste 0 994.6 -1.6 14
2019-08-14 17:00:00 36.5 6 Oeste 22 Noroeste 0 995 -1.8 15
2019-08-14 16:00:00 36 8 Sudoeste 19 Noroeste 0 995.7 -1.8 15
2019-08-14 15:00:00 34.9 8 Oeste 22 Norte 0 996.2 -1.5 15
2019-08-14 14:00:00 33.4 7 Noroeste 13 Oeste 0 996.8 -0.9 16
2019-08-14 13:00:00 30.9 6 Norte 14 Noroeste 0 997.5 -0.2 25
2019-08-14 12:00:00 27.7 5 Nordeste 12 Nordeste 0 997.7 0.5 31
2019-08-14 11:00:00 23.9 6 Noroeste 12 Noroeste 0 997.7 0.9 42
2019-08-14 10:00:00 20.4 10 Noroeste 14 Oeste 0 997.7 1.3 53
2019-08-14 09:00:00 17.5 9 Oeste 17 Noroeste 0 997.2 0.7 62
2019-08-14 08:00:00 16.4 4 Oeste 13 Sudoeste 0 996.8 0.5 63
2019-08-14 07:00:00 16.7 8 Oeste 14 Oeste 0 996.4 0 63
2019-08-14 06:00:00 17.9 5 Oeste 13 Oeste 0 996.5 0.2 59
2019-08-14 05:00:00 18.8 8 Oeste 15 Oeste 0 996.3 0.1 56
2019-08-14 04:00:00 19.6 8 Oeste 14 Oeste 0 996.4 0.5 52
2019-08-14 03:00:00 20.7 10 Oeste 17 Oeste 0 996.3 0.7 51
2019-08-14 02:00:00 21.7 9 Oeste 18 Oeste 0 996.2 1 47
2019-08-14 01:00:00 23.1 12 Oeste 19 Oeste 0 995.9 1.6 45
2019-08-14 00:00:00 24.3 12 Oeste 19 Oeste 0 995.6 1.7 44
2019-08-13 23:00:00 27.1 12 Oeste 23 Oeste 0 995.2 1.5 33
2019-08-13 22:00:00 29.5 3 Oeste 11 Oeste 0 994.3 0.3 23
2019-08-13 21:00:00 32.9 7 Oeste 13 Oeste 0 993.9 -0.3 15
2019-08-13 20:00:00 34.1 4 Sudoeste 13 Sudoeste 0 993.7 -1 14
2019-08-13 19:00:00 34.5 6 Sur 15 Sudoeste 0 994 -1.3 12
2019-08-13 18:00:00 34.7 6 Oeste 15 Oeste 0 994.2 -1.6 12
2019-08-13 17:00:00 34.1 6 Sudoeste 16 Sudoeste 0 994.7 -1.6 14
2019-08-13 16:00:00 33 5 Noroeste 17 Noroeste 0 995.3 -1.4 14
2019-08-13 15:00:00 32.2 8 Nordeste 16 Nordeste 0 995.8 -1.3 16
2019-08-13 14:00:00 30.9 6 Nordeste 13 Este 0 996.3 -0.4 18
2019-08-13 13:00:00 28.8 7 Este 14 Este 0 996.7 0 24
2019-08-13 12:00:00 26.3 5 Este 12 Nordeste 0 997.1 0.8 27
2019-08-13 11:00:00 23.7 6 Norte 10 Norte 0 996.7 0.8 31
2019-08-13 10:00:00 20.5 7 Noroeste 15 Oeste 0 996.7 1.2 46
2019-08-13 09:00:00 17.8 8 Oeste 14 Oeste 0 996.3 0.9 56
2019-08-13 08:00:00 16.5 6 Oeste 11 Oeste 0 995.9 0.5 56
2019-08-13 07:00:00 16.3 8 Oeste 12 Oeste 0 995.5 -0.1 62
2019-08-13 06:00:00 16.9 8 Oeste 14 Noroeste 0 995.4 -0.6 60
2019-08-13 05:00:00 17.9 9 Oeste 14 Oeste 0 995.4 -0.9 54
2019-08-13 04:00:00 18.9 8 Oeste 16 Sudoeste 0 995.6 -0.5 52
2019-08-13 03:00:00 19.9 9 Oeste 16 Oeste 0 996 0.2 51
2019-08-13 02:00:00 20.9 7 Oeste 19 Oeste 0 996.3 0.8 46
2019-08-13 01:00:00 21.7 11 Oeste 20 Oeste 0 996.1 1.3 29
2019-08-13 00:00:00 23.3 8 Oeste 13 Oeste 0 995.8 1.4 25
2019-08-12 23:00:00 24.1 5 Sudoeste 12 Noroeste 0 995.5 1.4 25
2019-08-12 22:00:00 25.8 9 Noroeste 12 Noroeste 0 994.8 0.6 22
2019-08-12 21:00:00 28.4 11 Norte 21 Norte 0 994.4 0 17
2019-08-12 20:00:00 29.8 12 Norte 25 Noroeste 0 994.1 -0.7 15
2019-08-12 19:00:00 31 16 Norte 27 Norte 0 994.2 -1.3 13
2019-08-12 18:00:00 31.2 16 Norte 34 Noroeste 0 994.4 -1.7 11
2019-08-12 17:00:00 30.7 13 Norte 28 Norte 0 994.8 -1.8 15
2019-08-12 16:00:00 30.1 16 Norte 37 Norte 0 995.5 -1.8 16
2019-08-12 15:00:00 29.5 19 Norte 31 Norte 0 996.1 -1.6 17
2019-08-12 14:00:00 28.7 18 Norte 30 Norte 0 996.6 -1.1 20
2019-08-12 13:00:00 26.7 20 Norte 37 Norte 0 997.3 -0.4 24
2019-08-12 12:00:00 24.4 22 Norte 32 Noroeste 0 997.7 0.2 31
2019-08-12 11:00:00 22.4 18 Norte 30 Noroeste 0 997.7 0.5 38
2019-08-12 10:00:00 18.5 14 Oeste 20 Oeste 0 997.7 0.9 55
2019-08-12 09:00:00 16.3 10 Oeste 17 Noroeste 0 997.5 0.8 62
2019-08-12 08:00:00 14.1 12 Oeste 15 Oeste 0 997.2 0.2 70
2019-08-12 07:00:00 14.7 7 Oeste 16 Oeste 0 996.8 -0.3 67
2019-08-12 06:00:00 14.6 10 Oeste 19 Oeste 0 996.7 -1.1 68
2019-08-12 05:00:00 15.7 10 Oeste 17 Oeste 0 997 -1.1 64
2019-08-12 04:00:00 16.1 12 Oeste 17 Noroeste 0 997.1 -0.9 63
2019-08-12 03:00:00 17.3 8 Oeste 16 Oeste 0 997.8 -0.1 57
2019-08-12 02:00:00 17.6 7 Oeste 22 Noroeste 0 998.1 0.8 55
2019-08-12 01:00:00 19.1 17 Noroeste 30 Noroeste 0 998 1.7 49
2019-08-12 00:00:00 20.6 20 Noroeste 34 Noroeste 0 997.9 2.2 42
2019-08-11 23:00:00 22 21 Noroeste 32 Noroeste 0 997.3 2 35
2019-08-11 22:00:00 23.5 19 Noroeste 33 Noroeste 0 996.3 0.7 32
2019-08-11 21:00:00 26.1 20 Noroeste 31 Noroeste 0 995.7 0 25
2019-08-11 20:00:00 28 20 Noroeste 35 Noroeste 0 995.3 -0.8 23
2019-08-11 19:00:00 28.8 20 Noroeste 37 Noroeste 0 995.6 -0.9 22
2019-08-11 18:00:00 28.9 18 Noroeste 33 Noroeste 0 995.7 -1.3 23
2019-08-11 17:00:00 28.7 22 Noroeste 36 Noroeste 0 996.1 -1.5 21
2019-08-11 16:00:00 28.2 16 Oeste 32 Oeste 0 996.5 -1.4 24
2019-08-11 15:00:00 27.7 13 Oeste 32 Noroeste 0 997 -1 25
2019-08-11 14:00:00 26.3 14 Noroeste 33 Noroeste 0 997.6 0 30
2019-08-11 13:00:00 25.7 17 Oeste 30 Oeste 0 997.9 0.2 31
2019-08-11 12:00:00 23.2 12 Oeste 30 Noroeste 0 998 0.5 41
2019-08-11 11:00:00 20.9 16 Oeste 27 Noroeste 0 997.6 0.6 50
2019-08-11 10:00:00 19 12 Oeste 30 Oeste 0 997.7 1.3 61
2019-08-11 09:00:00 16.5 18 Oeste 28 Oeste 0 997.5 1.2 74
2019-08-11 08:00:00 15.7 12 Oeste 26 Oeste 0 997 0.9 78
2019-08-11 07:00:00 16.2 9 Oeste 26 Oeste 0 996.4 0.6 75
2019-08-11 06:00:00 16.9 15 Oeste 31 Oeste 0 996.3 -0.2 72
2019-08-11 05:00:00 17.7 15 Oeste 32 Oeste 0 996.1 -0.6 67
2019-08-11 04:00:00 19.4 14 Oeste 27 Oeste 0 995.8 -0.8 58
2019-08-11 03:00:00 19.7 11 Oeste 24 Noroeste 0 996.5 0.4 55
2019-08-11 02:00:00 20.3 11 Oeste 31 Oeste 0 996.7 1 51
2019-08-11 01:00:00 20.9 15 Oeste 33 Oeste 0 996.6 1.6 50
2019-08-11 00:00:00 21.7 15 Oeste 39 Noroeste 0 996.1 1.4 51
2019-08-10 23:00:00 23.6 24 Noroeste 43 Noroeste 0 995.7 1.3 49
2019-08-10 22:00:00 25.2 14 Oeste 30 Noroeste 0 995 0.5 38
2019-08-10 21:00:00 26.9 18 Oeste 32 Noroeste 0 994.7 -0.3 35
2019-08-10 20:00:00 29.1 19 Oeste 37 Noroeste 0 994.4 -1.4 28
2019-08-10 19:00:00 31.6 14 Oeste 24 Oeste 0 994.5 -1.8 20
2019-08-10 18:00:00 31.4 12 Noroeste 21 Noroeste 0 995 -2.1 21
2019-08-10 17:00:00 31.5 10 Oeste 21 Oeste 0 995.8 -1.9 19
2019-08-10 16:00:00 30.5 11 Oeste 24 Noroeste 0 996.3 -1.8 24
2019-08-10 15:00:00 29.4 8 Oeste 19 Oeste 0 997.1 -1.3 28
2019-08-10 14:00:00 28.1 8 Oeste 23 Noroeste 0 997.7 -0.7 32
2019-08-10 13:00:00 25.7 7 Noroeste 19 Noroeste 0 998.1 -0.6 43
2019-08-10 12:00:00 23.8 7 Oeste 14 Oeste 0 998.4 -0.1 48
2019-08-10 11:00:00 21 8 Oeste 18 Noroeste 0 998.4 0.2 67
2019-08-10 10:00:00 18.9 10 Oeste 18 Noroeste 0 998.7 1 77
2019-08-10 09:00:00 18.1 7 Noroeste 13 Oeste 0 998.5 1 82
2019-08-10 08:00:00 16.8 3 Sudoeste 13 Oeste 0 998.2 0.7 83
2019-08-10 07:00:00 17.1 6 Oeste 12 Sudoeste 0 997.7 0.2 82
2019-08-10 06:00:00 17 8 Oeste 15 Oeste 0 997.5 0.1 82
2019-08-10 05:00:00 17.5 9 Oeste 14 Oeste 0 997.5 0.1 80
2019-08-10 04:00:00 18.7 9 Oeste 17 Oeste 0 997.5 0.4 74
2019-08-10 03:00:00 19.6 9 Oeste 21 Oeste 0 997.4 0.5 70
2019-08-10 02:00:00 21.5 9 Oeste 17 Oeste 0 997.4 0.8 62
2019-08-10 01:00:00 22.2 5 Oeste 14 Oeste 0 997.1 1.2 59
2019-08-10 00:00:00 23.2 8 Oeste 14 Oeste 0 996.9 1.5 55
2019-08-09 23:00:00 23.7 10 Oeste 18 Oeste 0 996.6 1.4 51
2019-08-09 22:00:00 24.9 6 Oeste 16 Oeste 0 995.9 0.4 45
2019-08-09 21:00:00 26.2 10 Oeste 26 Noroeste 0 995.4 -0.3 46
2019-08-09 20:00:00 27.3 11 Oeste 26 Noroeste 0 995.2 -0.9 50
2019-08-09 19:00:00 26.8 18 Noroeste 36 Noroeste 0 995.5 -0.9 52
2019-08-09 18:00:00 27.6 21 Noroeste 32 Oeste 0 995.7 -0.5 49
2019-08-09 17:00:00 26.9 18 Noroeste 42 Noroeste 0 996.1 0.5 56
2019-08-09 16:00:00 27.2 14 Oeste 37 Noroeste 0 996.4 1 54
2019-08-09 15:00:00 26.6 26 Noroeste 38 Noroeste 0 996.2 0.8 62
2019-08-09 14:00:00 27.7 23 Noroeste 33 Noroeste 0 995.6 0.5 65
2019-08-09 13:00:00 27.9 9 Sudoeste 26 Sudoeste 0 995.4 0.5 62
2019-08-09 12:00:00 26.1 7 Sudoeste 24 Sudoeste 0 995.4 0.9 68
2019-08-09 11:00:00 24.8 10 Sudoeste 22 Sur 0 995.1 1 73
2019-08-09 10:00:00 24.1 9 Sudoeste 23 Sur 0 994.9 0.7 76
2019-08-09 09:00:00 23.5 8 Sur 19 Sur 0 994.5 0.6 77
2019-08-09 08:00:00 22.8 8 Sur 21 Sudoeste 0 994.1 0 79
2019-08-09 07:00:00 23 10 Sudoeste 24 Sudoeste 0 994.2 0.1 78
2019-08-09 06:00:00 22.9 7 Sudoeste 18 Oeste 0 993.9 -0.2 77
2019-08-09 05:00:00 22.7 5 Sudoeste 21 Oeste 0 994.1 0 77
2019-08-09 04:00:00 22.6 8 Sudoeste 22 Oeste 0 994.1 0.4 77
2019-08-09 03:00:00 22.7 10 Oeste 26 Oeste 0 994.1 0.7 75
2019-08-09 02:00:00 23.5 8 Oeste 23 Oeste 0 994.1 1.2 70
2019-08-09 01:00:00 24.3 12 Oeste 21 Oeste 0 993.7 2 67
2019-08-09 00:00:00 24.9 14 Oeste 26 Noroeste 0 993.4 2.4 66
2019-08-08 23:00:00 26.6 16 Oeste 38 Oeste 0 992.9 2.2 59
2019-08-08 22:00:00 28.9 17 Oeste 29 Oeste 0 991.7 0.9 50
2019-08-08 21:00:00 31.9 14 Oeste 30 Oeste 0 991 0 37
2019-08-08 20:00:00 33.6 15 Oeste 32 Oeste 0 990.7 -0.7 34
2019-08-08 19:00:00 34.9 14 Oeste 35 Oeste 0 990.8 -1.1 29
2019-08-08 18:00:00 34.8 14 Oeste 40 Oeste 0 991 -1.3 33
2019-08-08 17:00:00 34.7 9 Sudoeste 28 Oeste 0 991.4 -1.6 30
2019-08-08 16:00:00 34.4 9 Oeste 24 Oeste 0 991.9 -1.6 32
2019-08-08 15:00:00 33 9 Oeste 26 Sudoeste 0 992.3 -1.5 35
2019-08-08 14:00:00 31.1 7 Sur 20 Sur 0 993 -0.8 39
2019-08-08 13:00:00 29.1 8 Sudoeste 18 Sur 0 993.5 -0.4 47
2019-08-08 12:00:00 27.2 5 Sudeste 12 Sudeste 0 993.8 0.1 56
2019-08-08 11:00:00 24.8 4 Oeste 13 Noroeste 0 993.8 0.5 61
2019-08-08 10:00:00 23 4 Oeste 9 Oeste 0 993.9 0.6 64
2019-08-08 09:00:00 21.4 3 Sur 4 Sudoeste 0 993.7 0.5 70
2019-08-08 08:00:00 19.2 2 Sudoeste 5 Sudoeste 0 993.3 0.1 77
2019-08-08 07:00:00 19.3 2 Noroeste 9 Oeste 0 993.3 -0.2 78
2019-08-08 06:00:00 20.2 4 Sudoeste 10 Oeste 0 993.2 -0.5 75
2019-08-08 05:00:00 20.7 5 Oeste 15 Oeste 0 993.2 -0.4 75
2019-08-08 04:00:00 21.6 11 Oeste 17 Oeste 0 993.5 0 72
2019-08-08 03:00:00 22.4 5 Oeste 13 Oeste 0 993.7 0.6 68
2019-08-08 02:00:00 23.5 4 Oeste 17 Oeste 0 993.6 0.6 57
2019-08-08 01:00:00 24 7 Oeste 13 Oeste 0 993.5 1.1 53
2019-08-08 00:00:00 24.5 4 Sur 9 Sur 0 993.1 0.7 50
2019-08-07 23:00:00 24.9 3 Sur 6 Sudeste 0 993 0.7 50
2019-08-07 22:00:00 26 3 Este 5 Norte 0 992.4 -0.4 51
2019-08-07 21:00:00 27.6 6 Norte 10 Norte 0 992.4 -0.4 46
2019-08-07 20:00:00 28.6 5 Oeste 12 Noroeste 0 992.3 -0.9 42
2019-08-07 19:00:00 27.8 3 Sur 10 Oeste 0 992.8 -0.7 46
2019-08-07 18:00:00 27.4 5 Oeste 13 Noroeste 0 992.8 -0.9 44
2019-08-07 17:00:00 26.9 5 Oeste 16 Noroeste 0 993.2 -0.9 47
2019-08-07 16:00:00 27.4 11 Oeste 18 Noroeste 0 993.5 0.6 46
2019-08-07 15:00:00 26.1 6 Oeste 14 Noroeste 0 993.7 -0.3 54
2019-08-07 14:00:00 25.9 8 Oeste 19 Noroeste 0 994.1 0.8 55
2019-08-07 13:00:00 23.7 8 Noroeste 26 Oeste 0 992.9 0.1 66
2019-08-07 12:00:00 23.8 13 Oeste 25 Oeste 0 994 1.8 66
2019-08-07 11:00:00 22.9 10 Oeste 22 Oeste 0 993.3 1.3 69
2019-08-07 10:00:00 21.8 10 Oeste 23 Oeste 0 992.8 1.4 73
2019-08-07 09:00:00 20.2 5 Sudoeste 12 Sudoeste 0 992.2 1 79
2019-08-07 08:00:00 20 7 Oeste 22 Sudoeste 0 992 0.7 79
2019-08-07 07:00:00 20.2 12 Oeste 19 Oeste 0 991.4 0.3 77
2019-08-07 06:00:00 20.3 8 Sudoeste 18 Oeste 0 991.2 -0.2 76
2019-08-07 05:00:00 20.7 8 Oeste 18 Oeste 0 991.3 -0.5 74
2019-08-07 04:00:00 21.2 12 Oeste 22 Oeste 0 991.1 -0.5 72
2019-08-07 03:00:00 22.2 8 Oeste 16 Oeste 0 991.4 -0.1 67
2019-08-07 02:00:00 22.5 10 Oeste 22 Noroeste 0 991.8 0.6 66
2019-08-07 01:00:00 23.6 13 Oeste 24 Noroeste 0 991.6 1.4 62
2019-08-07 00:00:00 24.4 11 Oeste 23 Oeste 0 991.5 1.8 58
2019-08-06 23:00:00 25.5 12 Oeste 27 Oeste 0 991.2 1.9 53
2019-08-06 22:00:00 27.1 17 Oeste 31 Noroeste 0 990.2 1 50
2019-08-06 21:00:00 29.8 18 Oeste 32 Noroeste 0 989.7 0.1 41
2019-08-06 20:00:00 31.7 20 Oeste 32 Noroeste 0 989.3 -0.8 34
2019-08-06 19:00:00 33.6 27 Noroeste 37 Noroeste 0 989.2 -1.6 29
2019-08-06 18:00:00 34.6 17 Oeste 31 Noroeste 0 989.6 -1.8 27
2019-08-06 17:00:00 35.1 20 Oeste 33 Noroeste 0 990.1 -2 25
2019-08-06 16:00:00 34.8 13 Oeste 29 Noroeste 0 990.8 -2 27
2019-08-06 15:00:00 32.7 12 Oeste 23 Oeste 0 991.4 -1.7 35
2019-08-06 14:00:00 30.6 11 Oeste 24 Oeste 0 992.1 -1 41
2019-08-06 13:00:00 28 10 Oeste 23 Oeste 0 992.8 -0.4 48
2019-08-06 12:00:00 25.5 12 Oeste 22 Noroeste 0 993.1 0.1 57
2019-08-06 11:00:00 23.1 10 Oeste 21 Oeste 0 993.1 0.2 67
2019-08-06 10:00:00 21.9 9 Oeste 18 Oeste 0 993.2 0.3 71
2019-08-06 09:00:00 20.1 7 Oeste 12 Oeste 0 993 0.3 79
2019-08-06 08:00:00 17.9 4 Sur 9 Sudoeste 0 992.9 0.3 86
2019-08-06 07:00:00 18.1 5 Sudoeste 12 Sudoeste 0 992.9 0.4 85
2019-08-06 06:00:00 18.3 4 Sudoeste 11 Sur 0 992.7 0 82
2019-08-06 05:00:00 19.2 8 Sudoeste 19 Oeste 0 992.6 -0.3 75
2019-08-06 04:00:00 19.3 8 Oeste 22 Oeste 0 992.5 0 78
2019-08-06 03:00:00 20.7 10 Oeste 28 Oeste 0 992.7 0.3 71
2019-08-06 02:00:00 22.2 12 Oeste 23 Oeste 0 992.9 1.3 61
2019-08-06 01:00:00 23.1 12 Oeste 26 Oeste 0 992.5 1.7 51
2019-08-06 00:00:00 25.4 14 Oeste 26 Sudoeste 0 992.4 2 44
2019-08-05 23:00:00 26.9 14 Oeste 22 Oeste 0 991.6 1.5 36
2019-08-05 22:00:00 28.8 12 Oeste 22 Oeste 0 990.8 0.4 28
2019-08-05 21:00:00 32.1 14 Oeste 24 Oeste 0 990.4 -0.1 24
2019-08-05 20:00:00 34.4 17 Oeste 27 Oeste 0 990.1 -0.8 20
2019-08-05 19:00:00 35.1 14 Noroeste 30 Noroeste 0 990.4 -1.2 19
2019-08-05 18:00:00 35.3 18 Noroeste 31 Noroeste 0 990.5 -1.7 18
2019-08-05 17:00:00 34.3 16 Noroeste 32 Noroeste 0 990.9 -1.9 23
2019-08-05 16:00:00 33.1 15 Oeste 29 Oeste 0 991.6 -2 23
2019-08-05 15:00:00 32 14 Oeste 25 Noroeste 0 992.2 -2 26
2019-08-05 14:00:00 29.2 9 Noroeste 21 Noroeste 0 992.8 -1.5 35
2019-08-05 13:00:00 26.4 5 Oeste 12 Oeste 0 993.6 -0.8 44
2019-08-05 12:00:00 23.6 4 Oeste 15 Noroeste 0 994.2 -0.1 54
2019-08-05 11:00:00 20.9 8 Noroeste 18 Noroeste 0 994.3 0 64
2019-08-05 10:00:00 18.5 9 Noroeste 15 Noroeste 0 994.4 0.5 73
2019-08-05 09:00:00 17 6 Oeste 10 Noroeste 0 994.3 0.4 78
2019-08-05 08:00:00 15.1 4 Sudoeste 9 Sudoeste 0 994.3 0.3 82
2019-08-05 07:00:00 15.1 3 Sudoeste 16 Oeste 0 993.9 -0.1 84
2019-08-05 06:00:00 15.8 9 Oeste 18 Oeste 0 993.9 -0.3 81
2019-08-05 05:00:00 16.1 8 Oeste 15 Oeste 0 994 -0.3 80
2019-08-05 04:00:00 17 10 Oeste 15 Oeste 0 994 -0.1 77
2019-08-05 03:00:00 18.5 10 Oeste 19 Noroeste 0 994.2 0.5 71
2019-08-05 02:00:00 20.6 9 Oeste 19 Oeste 0 994.3 1.1 63
2019-08-05 01:00:00 21.9 13 Oeste 22 Oeste 0 994.1 1.4 59
2019-08-05 00:00:00 23.9 13 Oeste 25 Oeste 0 993.7 1.6 50
2019-08-04 23:00:00 25.6 14 Oeste 25 Oeste 0 993.2 1.7 45
2019-08-04 22:00:00 27.7 13 Oeste 31 Noroeste 0 992.7 1.4 44
2019-08-04 21:00:00 31.2 17 Oeste 31 Noroeste 0 992.1 0.7 32
2019-08-04 20:00:00 33.4 19 Oeste 30 Noroeste 0 991.5 0 26
2019-08-04 19:00:00 34.5 23 Noroeste 34 Noroeste 0 991.3 -0.9 24
2019-08-04 18:00:00 35.4 18 Oeste 31 Noroeste 0 991.4 -1.5 23
2019-08-04 17:00:00 35.5 18 Noroeste 32 Noroeste 0 991.5 -1.9 21
2019-08-04 16:00:00 34.4 14 Oeste 28 Noroeste 0 992.2 -1.8 25
2019-08-04 15:00:00 32 13 Noroeste 27 Noroeste 0 992.9 -1.3 36
2019-08-04 14:00:00 30.6 10 Oeste 22 Noroeste 0 993.4 -1 40
2019-08-04 13:00:00 28 5 Sudoeste 13 Sudoeste 0 994 -0.4 46
2019-08-04 12:00:00 25.2 6 Oeste 14 Noroeste 0 994.2 0 57
2019-08-04 11:00:00 22.4 9 Noroeste 19 Noroeste 0 994.4 0.8 68
2019-08-04 10:00:00 20.9 8 Oeste 14 Oeste 0 994.4 1 73
2019-08-04 09:00:00 19.4 6 Oeste 14 Sudoeste 0 994.2 1 81
2019-08-04 08:00:00 17.7 6 Sudoeste 12 Sudoeste 0 993.6 0.5 87
2019-08-04 07:00:00 17.4 4 Sudoeste 11 Sudoeste 0 993.4 0.5 87
2019-08-04 06:00:00 18 4 Sudoeste 8 Sur 0 993.2 0.2 83
2019-08-04 05:00:00 19 4 Sudoeste 21 Oeste 0 993.1 0.2 79
2019-08-04 04:00:00 19.7 13 Oeste 21 Oeste 0 992.9 0.4 78
2019-08-04 03:00:00 20.8 11 Oeste 27 Oeste 0 993 0.8 71
2019-08-04 02:00:00 22.6 12 Oeste 23 Oeste 0 992.9 1.2 65
2019-08-04 01:00:00 23.4 11 Oeste 23 Oeste 0 992.5 1.8 59
2019-08-04 00:00:00 24.7 12 Oeste 25 Oeste 0 992.2 2.3 56
2019-08-03 23:00:00 26.6 16 Oeste 35 Oeste 0 991.7 1.7 49
2019-08-03 22:00:00 29.2 14 Oeste 31 Oeste 0 990.7 0.5 38
2019-08-03 21:00:00 34 8 Oeste 18 Oeste 0 989.9 -0.7 20
2019-08-03 20:00:00 35 13 Oeste 26 Noroeste 0 990 -1.2 16
2019-08-03 19:00:00 35.4 16 Noroeste 27 Noroeste 0 990.2 -1.4 20
2019-08-03 18:00:00 36.1 9 Oeste 34 Oeste 0 990.6 -1.5 15
2019-08-03 17:00:00 35.6 9 Oeste 26 Noroeste 0 991.2 -1.3 16
2019-08-03 16:00:00 35 12 Oeste 27 Noroeste 0 991.6 -1.4 18
2019-08-03 15:00:00 33.5 10 Oeste 24 Noroeste 0 992.1 -1 24
2019-08-03 14:00:00 30.6 10 Noroeste 20 Noroeste 0 992.5 -0.9 37
2019-08-03 13:00:00 28.3 7 Noroeste 14 Noroeste 0 993 -0.5 43
2019-08-03 12:00:00 25.3 4 Sur 12 Oeste 0 993.1 -0.2 49
2019-08-03 11:00:00 22.2 5 Oeste 10 Noroeste 0 993.4 0.6 60
2019-08-03 10:00:00 19.4 5 Oeste 15 Noroeste 0 993.5 1.1 70
2019-08-03 09:00:00 17.2 8 Noroeste 12 Noroeste 0 993.3 1.1 79
2019-08-03 08:00:00 15.8 6 Oeste 12 Noroeste 0 992.8 0.5 83
2019-08-03 07:00:00 15.8 6 Oeste 10 Noroeste 0 992.4 0.3 83
2019-08-03 06:00:00 16.5 7 Noroeste 9 Noroeste 0 992.2 -0.1 80
2019-08-03 05:00:00 17.7 3 Oeste 10 Oeste 0 992.3 0 75
2019-08-03 04:00:00 19.5 5 Oeste 17 Oeste 0 992.1 -0.1 68
2019-08-03 03:00:00 20.6 12 Oeste 19 Oeste 0 992.3 0.4 64
2019-08-03 02:00:00 21.9 6 Oeste 18 Oeste 0 992.3 0.7 61
2019-08-03 01:00:00 23.7 11 Oeste 22 Noroeste 0 992.2 1.2 57
2019-08-03 00:00:00 25.6 14 Oeste 23 Oeste 0 991.9 1.3 50
2019-08-02 23:00:00 27.5 14 Oeste 23 Noroeste 0 991.6 0.8 45
2019-08-02 22:00:00 30.3 7 Sudoeste 15 Oeste 0 991 0 26
2019-08-02 21:00:00 33.5 6 Oeste 15 Noroeste 0 990.6 -0.8 19
2019-08-02 20:00:00 34.9 8 Noroeste 19 Noroeste 0 990.8 -1.2 16
2019-08-02 19:00:00 34.8 10 Noroeste 21 Noroeste 0 991 -1.7 18
2019-08-02 18:00:00 34.5 9 Noroeste 22 Noroeste 0 991.4 -1.8 18
2019-08-02 17:00:00 33.5 10 Noroeste 22 Noroeste 0 992 -1.7 20
2019-08-02 16:00:00 32.1 12 Noroeste 23 Noroeste 0 992.7 -1.6 23
2019-08-02 15:00:00 29.8 9 Oeste 21 Noroeste 0 993.2 -1.4 31
2019-08-02 14:00:00 28.5 8 Oeste 19 Noroeste 0 993.7 -0.8 37
2019-08-02 13:00:00 25.4 6 Oeste 19 Noroeste 0 994.3 -0.1 46
2019-08-02 12:00:00 22.5 9 Noroeste 19 Noroeste 0 994.6 0.5 58
2019-08-02 11:00:00 20.2 6 Noroeste 13 Noroeste 0 994.5 0.8 67
2019-08-02 10:00:00 18.2 8 Noroeste 16 Noroeste 0 994.4 0.9 75
2019-08-02 09:00:00 17 4 Oeste 9 Oeste 0 994.1 0.8 80
2019-08-02 08:00:00 14.9 5 Sudoeste 11 Sudoeste 0 993.7 0.3 85
2019-08-02 07:00:00 14.8 3 Sudoeste 10 Sur 0 993.5 -0.2 83
2019-08-02 06:00:00 16.4 5 Oeste 18 Oeste 0 993.3 -0.1 80
2019-08-02 05:00:00 16.8 10 Oeste 23 Noroeste 0 993.4 -0.1 79
2019-08-02 04:00:00 17.5 9 Oeste 22 Oeste 0 993.7 0.4 75
2019-08-02 03:00:00 18.3 12 Oeste 26 Noroeste 0 993.4 0.3 68
2019-08-02 02:00:00 19.8 12 Oeste 24 Oeste 0 993.5 1.1 58
2019-08-02 01:00:00 21.2 12 Oeste 24 Oeste 0 993.3 1.9 52
2019-08-02 00:00:00 23.4 13 Oeste 22 Oeste 0 993.1 2.4 43
2019-08-01 23:00:00 25.6 13 Oeste 25 Noroeste 0 992.4 2.2 33
2019-08-01 22:00:00 27.9 17 Oeste 25 Noroeste 0 991.4 1.4 29
2019-08-01 21:00:00 31 14 Oeste 27 Oeste 0 990.7 0.5 25
2019-08-01 20:00:00 33.7 15 Oeste 29 Oeste 0 990.2 -0.1 19
2019-08-01 19:00:00 34.9 15 Oeste 26 Noroeste 0 990 -0.8 16
2019-08-01 18:00:00 35.1 13 Oeste 32 Noroeste 0 990.2 -1.1 17
2019-08-01 17:00:00 34.8 18 Noroeste 34 Noroeste 0 990.3 -1.5 17
2019-08-01 16:00:00 34 15 Oeste 28 Noroeste 0 990.8 -1.3 23
2019-08-01 15:00:00 33.3 10 Oeste 25 Oeste 0 991.3 -0.8 25
2019-08-01 14:00:00 32.1 11 Oeste 21 Oeste 0 991.8 -0.2 27
2019-08-01 13:00:00 29.2 6 Sudoeste 15 Oeste 0 992.1 0.4 34
2019-08-01 12:00:00 26.5 8 Oeste 16 Oeste 0 992.1 0.5 41
2019-08-01 11:00:00 23.5 6 Sudoeste 16 Oeste 0 992 0.7 48
2019-08-01 10:00:00 20.5 7 Noroeste 15 Noroeste 0 991.7 0.8 58
2019-08-01 09:00:00 18.7 10 Noroeste 13 Noroeste 0 991.6 1 62
2019-08-01 08:00:00 16.9 4 Sudoeste 9 Oeste 0 991.3 1 66
2019-08-01 07:00:00 17.3 5 Oeste 12 Oeste 0 990.9 0.7 65
2019-08-01 06:00:00 18.1 9 Oeste 14 Oeste 0 990.6 0.5 62
2019-08-01 05:00:00 18.8 5 Sudoeste 11 Sudoeste 0 990.3 0.2 58
2019-08-01 04:00:00 20.7 6 Oeste 19 Oeste 0 990.2 0 53
2019-08-01 03:00:00 21.9 9 Oeste 18 Oeste 0 990.1 0.1 50
2019-08-01 02:00:00 23.3 12 Oeste 20 Oeste 0 990.1 0.5 46
2019-08-01 01:00:00 24.6 12 Oeste 21 Noroeste 0 990.2 1.3 43
2019-08-01 00:00:00 26.5 7 Oeste 20 Oeste 0 990 1.4 35
2019-07-31 23:00:00 26.9 8 Oeste 16 Oeste 0 989.6 1.7 35
2019-07-31 22:00:00 27.2 11 Oeste 27 Oeste 0 988.9 1 35
2019-07-31 21:00:00 28.9 19 Oeste 35 Oeste 0 988.6 0.4 31
2019-07-31 20:00:00 33.9 17 Oeste 27 Noroeste 0 987.9 -0.9 14
2019-07-31 19:00:00 36 13 Oeste 27 Noroeste 0 987.9 -1.7 11
2019-07-31 18:00:00 36.6 15 Oeste 30 Noroeste 0 988.2 -2.1 10
2019-07-31 17:00:00 36.5 12 Oeste 24 Noroeste 0 988.8 -2.2 11
2019-07-31 16:00:00 35.4 12 Oeste 23 Sudoeste 0 989.6 -2 13
2019-07-31 15:00:00 33.5 9 Noroeste 19 Noroeste 0 990.3 -1.6 18
2019-07-31 14:00:00 31.6 5 Oeste 16 Oeste 0 991 -1 21
2019-07-31 13:00:00 29 6 Oeste 17 Noroeste 0 991.6 -0.1 29
2019-07-31 12:00:00 25.9 7 Norte 13 Norte 0 991.9 0.3 34
2019-07-31 11:00:00 23.5 6 Noroeste 13 Noroeste 0 992 0.4 38
2019-07-31 10:00:00 20.8 9 Oeste 14 Noroeste 0 991.7 0.3 48
2019-07-31 09:00:00 18.3 6 Oeste 9 Oeste 0 991.6 0.2 54
2019-07-31 08:00:00 16.2 4 Sudoeste 9 Sudoeste 0 991.6 0.1 61
2019-07-31 07:00:00 16.3 6 Sudoeste 10 Oeste 0 991.4 -0.2 61
2019-07-31 06:00:00 16.8 6 Oeste 14 Oeste 0 991.4 -0.6 60
2019-07-31 05:00:00 17.6 8 Oeste 16 Oeste 0 991.5 -0.8 58
2019-07-31 04:00:00 18.4 8 Oeste 17 Oeste 0 991.6 -0.7 55
2019-07-31 03:00:00 19.4 8 Oeste 18 Oeste 0 992 0 52
2019-07-31 02:00:00 20 9 Oeste 20 Oeste 0 992.3 0.4 51
2019-07-31 01:00:00 21.6 11 Oeste 18 Oeste 0 992.3 1.2 47
2019-07-31 00:00:00 22.4 12 Oeste 26 Oeste 0 992 1.1 46
2019-07-30 23:00:00 25.7 11 Oeste 23 Oeste 0 991.9 1 36
2019-07-30 22:00:00 28.2 5 Noroeste 11 Noroeste 0 991.1 0 19
2019-07-30 21:00:00 30.2 9 Noroeste 18 Norte 0 990.9 -0.9 16
2019-07-30 20:00:00 31.8 12 Norte 23 Noroeste 0 990.9 -1.4 15
2019-07-30 19:00:00 32.4 15 Norte 28 Noroeste 0 991.1 -1.9 14
2019-07-30 18:00:00 32.4 17 Noroeste 28 Norte 0 991.8 -1.8 13
2019-07-30 17:00:00 31.8 15 Noroeste 31 Noroeste 0 992.3 -2.1 14
2019-07-30 16:00:00 30.9 14 Noroeste 27 Norte 0 993 -2 15
2019-07-30 15:00:00 29.9 13 Noroeste 28 Noroeste 0 993.6 -1.7 17
2019-07-30 14:00:00 28.5 14 Noroeste 25 Noroeste 0 994.4 -1.1 20
2019-07-30 13:00:00 26.4 18 Noroeste 36 Noroeste 0 995 -0.9 25
2019-07-30 12:00:00 24.6 17 Norte 28 Norte 0 995.3 -0.2 29
2019-07-30 11:00:00 22.4 15 Norte 25 Norte 0 995.5 0.3 36
2019-07-30 10:00:00 20 17 Noroeste 23 Noroeste 0 995.9 1 45
2019-07-30 09:00:00 17.6 11 Oeste 17 Oeste 0 995.5 0.6 55
2019-07-30 08:00:00 15.6 7 Oeste 12 Oeste 0 995.2 0.4 64
2019-07-30 07:00:00 14.9 6 Oeste 13 Oeste 0 994.9 0.3 68
2019-07-30 06:00:00 15.3 7 Oeste 16 Oeste 0 994.9 0.1 69
2019-07-30 05:00:00 16 9 Oeste 17 Oeste 0 994.8 0.1 66
2019-07-30 04:00:00 16.7 6 Oeste 15 Oeste 0 994.6 0.2 63
2019-07-30 03:00:00 17.1 8 Oeste 20 Noroeste 0 994.8 0.9 61
2019-07-30 02:00:00 17.9 12 Oeste 22 Oeste 0 994.7 1.3 56
2019-07-30 01:00:00 19.2 12 Oeste 23 Oeste 0 994.4 1.9 48
2019-07-30 00:00:00 20.6 13 Oeste 19 Noroeste 0 993.9 2.1 45
2019-07-29 23:00:00 22.5 14 Oeste 28 Noroeste 0 993.4 2.1 40
2019-07-29 22:00:00 24.5 14 Oeste 31 Noroeste 0 992.5 1.4 36
2019-07-29 21:00:00 27.5 19 Oeste 34 Oeste 0 991.8 0.6 29
2019-07-29 20:00:00 29.9 22 Oeste 44 Oeste 0 991.3 0 24
2019-07-29 19:00:00 31.7 18 Oeste 37 Oeste 0 991.1 -0.6 23
2019-07-29 18:00:00 31.9 16 Oeste 36 Noroeste 0 991.2 -0.7 23
2019-07-29 17:00:00 31.7 18 Oeste 33 Oeste 0 991.3 -0.8 23
2019-07-29 16:00:00 30.8 15 Oeste 35 Noroeste 0 991.7 -0.9 28
2019-07-29 15:00:00 29.6 15 Oeste 35 Noroeste 0 991.9 -0.8 34
2019-07-29 14:00:00 28.5 14 Oeste 28 Noroeste 0 992.1 -0.4 43
2019-07-29 13:00:00 27.3 13 Oeste 26 Oeste 0 992.6 0 48
2019-07-29 12:00:00 24.9 12 Oeste 27 Oeste 0 992.7 0.5 55
2019-07-29 11:00:00 23 15 Oeste 24 Oeste 0 992.5 0.9 62
2019-07-29 10:00:00 19.9 12 Oeste 24 Noroeste 0 992.6 1.4 67
2019-07-29 09:00:00 18.5 11 Oeste 20 Oeste 0 992.2 1.3 68
2019-07-29 08:00:00 16.8 10 Oeste 18 Sudoeste 0 991.6 0.8 71
2019-07-29 07:00:00 15.9 8 Oeste 19 Oeste 0 991.2 0.7 76
2019-07-29 06:00:00 15.8 11 Oeste 19 Oeste 0 990.9 0.4 69
2019-07-29 05:00:00 17 9 Oeste 20 Oeste 0 990.8 0.6 63
2019-07-29 04:00:00 18.3 9 Oeste 24 Sudoeste 0 990.5 0.5 61
2019-07-29 03:00:00 19.6 9 Oeste 27 Oeste 0 990.5 0.8 58
2019-07-29 02:00:00 20.5 16 Oeste 27 Noroeste 0 990.2 1.1 56
2019-07-29 01:00:00 22.5 13 Oeste 27 Oeste 0 990 1.9 51
2019-07-29 00:00:00 24.3 16 Oeste 31 Oeste 0 989.7 2 47
2019-07-28 23:00:00 26.2 19 Oeste 28 Noroeste 0 989.1 1.7 39
2019-07-28 22:00:00 28.1 12 Oeste 21 Oeste 0 988.1 0.6 36
2019-07-28 21:00:00 31.6 9 Oeste 18 Oeste 0 987.7 -0.2 29
2019-07-28 20:00:00 32.4 5 Noroeste 16 Sudoeste 0 987.4 -1 27
2019-07-28 19:00:00 32.9 6 Oeste 37 Noroeste 0 987.5 -1.5 26
2019-07-28 18:00:00 32.1 5 Noroeste 23 Oeste 0 987.9 -1.6 28
2019-07-28 17:00:00 31.6 5 Nordeste 22 Nordeste 0 988.4 -1.6 29
2019-07-28 16:00:00 30.5 11 Norte 23 Noroeste 0 989 -1.5 34
2019-07-28 15:00:00 29.7 10 Noroeste 25 Noroeste 0 989.5 -1.3 37
2019-07-28 14:00:00 28.4 12 Noroeste 24 Noroeste 0 990 -1 43
2019-07-28 13:00:00 26.7 9 Oeste 19 Noroeste 0 990.5 -0.3 48
2019-07-28 12:00:00 25.1 6 Oeste 15 Noroeste 0 990.8 0.1 54
2019-07-28 11:00:00 22.9 5 Oeste 12 Oeste 0 991 0.4 62
2019-07-28 10:00:00 20.5 5 Oeste 12 Oeste 0 990.8 0.7 71
2019-07-28 09:00:00 18.6 4 Sudoeste 12 Sudoeste 0 990.7 0.8 79
2019-07-28 08:00:00 16.2 4 Sudoeste 9 Sudoeste 0 990.6 0.7 86
2019-07-28 07:00:00 16.2 3 Sudoeste 11 Sudoeste 0 990.1 0 85
2019-07-28 06:00:00 17.2 6 Oeste 14 Oeste 0 989.9 -0.3 85
2019-07-28 05:00:00 17.9 7 Oeste 15 Sudoeste 0 989.9 -0.4 81
2019-07-28 04:00:00 18.4 8 Oeste 17 Noroeste 0 990.1 -0.3 78
2019-07-28 03:00:00 19.3 8 Oeste 18 Sudoeste 0 990.2 -0.1 74
2019-07-28 02:00:00 20 8 Oeste 15 Oeste 0 990.3 0.3 68
2019-07-28 01:00:00 20.4 7 Oeste 16 Oeste 0 990.4 1.2 61
2019-07-28 00:00:00 21.7 6 Oeste 13 Oeste 0 990.3 1.7 54
2019-07-27 23:00:00 22.1 9 Oeste 16 Oeste 0 990 1.7 53
2019-07-26 12:00:00 24.5 13 Oeste 28 Noroeste 0 994.2 0 45
2019-07-26 11:00:00 22 15 Oeste 28 Oeste 0 994.2 0.4 52
2019-07-26 10:00:00 20.1 11 Oeste 21 Oeste 0 994.2 0.7 64
2019-07-26 09:00:00 17.6 12 Oeste 21 Noroeste 0 994.2 0.9 76
2019-07-26 08:00:00 16.7 10 Oeste 21 Oeste 0 993.8 0.5 82
2019-07-26 07:00:00 16.5 9 Oeste 22 Noroeste 0 993.5 0.2 82
2019-07-26 06:00:00 16.9 11 Oeste 27 Noroeste 0 993.3 -0.1 79
2019-07-26 05:00:00 18.1 14 Oeste 27 Oeste 0 993.3 -0.3 74
2019-07-26 04:00:00 19.7 14 Oeste 29 Oeste 0 993.3 -0.2 68
2019-07-26 03:00:00 20.3 16 Oeste 27 Oeste 0 993.4 0.3 65
2019-07-26 02:00:00 21.6 12 Oeste 27 Oeste 0 993.6 1 64
2019-07-26 01:00:00 22.3 13 Oeste 31 Oeste 0 993.5 1.9 66
2019-07-26 00:00:00 23 15 Oeste 36 Oeste 0 993.1 2.3 66
2019-07-25 23:00:00 24.1 26 Oeste 46 Noroeste 0 992.6 1.9 64
2019-07-25 22:00:00 26.6 28 Noroeste 44 Noroeste 0 991.6 0.9 57
2019-07-25 21:00:00 30 12 Oeste 26 Noroeste 0 990.8 -0.1 36
2019-07-25 20:00:00 32.5 17 Oeste 32 Oeste 0 990.7 -0.7 32
2019-07-25 19:00:00 33.6 21 Oeste 37 Noroeste 0 990.7 -1.1 27
2019-07-25 18:00:00 33.8 16 Oeste 31 Noroeste 0 990.9 -1.3 31
2019-07-25 17:00:00 34 24 Noroeste 38 Noroeste 0 991.4 -1.4 31
2019-07-25 16:00:00 33.6 17 Oeste 33 Noroeste 0 991.8 -1.3 32
2019-07-25 15:00:00 32 13 Oeste 29 Noroeste 0 992.2 -1.1 37
2019-07-25 14:00:00 30.1 11 Oeste 25 Noroeste 0 992.8 -0.7 47
2019-07-25 13:00:00 28.1 14 Noroeste 27 Noroeste 0 993.1 -0.5 52
2019-07-25 12:00:00 26.4 10 Oeste 20 Noroeste 0 993.3 0.2 59
2019-07-25 11:00:00 23.9 11 Oeste 28 Noroeste 0 993.5 0.9 68
2019-07-25 10:00:00 22.2 11 Oeste 21 Noroeste 0 993.6 1.3 74
2019-07-25 09:00:00 20.7 11 Oeste 18 Noroeste 0 993.1 1.3 78
2019-07-25 08:00:00 19.1 7 Noroeste 9 Noroeste 0 992.6 0.7 79
2019-07-25 07:00:00 19.1 2 Norte 9 Oeste 0 992.3 0.5 76
2019-07-25 06:00:00 21.1 6 Oeste 18 Oeste 0 991.8 -0.2 69
2019-07-25 05:00:00 22.1 6 Sudoeste 11 Sudoeste 0 991.9 -0.1 63
2019-07-25 04:00:00 23.6 4 Sudoeste 16 Oeste 0 991.8 0.2 55
2019-07-25 03:00:00 25 10 Oeste 19 Sudoeste 0 992 0.9 50
2019-07-25 02:00:00 26.2 12 Oeste 24 Sudoeste 0 992 1.3 44
2019-07-25 01:00:00 27.5 11 Oeste 20 Sudoeste 0 991.6 1.9 37
2019-07-25 00:00:00 28 12 Oeste 27 Oeste 0 991.1 2.1 33
2019-07-24 23:00:00 30.6 15 Oeste 26 Oeste 0 990.7 1.9 29
2019-07-24 22:00:00 32.1 13 Oeste 22 Oeste 0 989.7 0.7 25
2019-07-24 21:00:00 36.2 11 Oeste 23 Oeste 0 989 -0.4 19
2019-07-24 20:00:00 37.6 9 Oeste 32 Noroeste 0 988.8 -1.4 21
2019-07-24 19:00:00 37.5 23 Oeste 34 Noroeste 0 989 -1.6 21
2019-07-24 18:00:00 38.2 17 Oeste 32 Noroeste 0 989.4 -2.1 19
2019-07-24 17:00:00 37.6 18 Oeste 31 Noroeste 0 990.2 -1.9 20
2019-07-24 16:00:00 36.6 18 Noroeste 31 Noroeste 0 990.6 -2.1 23
2019-07-24 15:00:00 35.8 13 Noroeste 22 Noroeste 0 991.5 -1.6 23
2019-07-24 14:00:00 34.5 14 Noroeste 22 Noroeste 0 992.1 -1 21
2019-07-24 13:00:00 32.4 8 Oeste 16 Noroeste 0 992.7 -0.3 27
2019-07-24 12:00:00 29.5 6 Oeste 12 Noroeste 0 993.1 0.3 39
2019-07-24 11:00:00 26.1 5 Oeste 11 Noroeste 0 993.1 0.2 47
2019-07-24 10:00:00 23.2 4 Norte 9 Norte 0 993 0.4 55
2019-07-24 09:00:00 21.8 4 Noroeste 8 Noroeste 0 992.8 0.3 58
2019-07-24 08:00:00 20.1 2 Oeste 13 Oeste 0 992.9 0.2 64
2019-07-24 07:00:00 19.8 6 Oeste 18 Oeste 0 992.6 -0.2 65
2019-07-24 06:00:00 20.2 8 Oeste 15 Oeste 0 992.5 -0.3 64
2019-07-24 05:00:00 21.4 7 Oeste 13 Oeste 0 992.7 -0.7 59
2019-07-24 04:00:00 22.3 4 Oeste 13 Oeste 0 992.8 -0.6 55
2019-07-24 03:00:00 23.3 8 Oeste 16 Oeste 0 992.8 -0.6 52
2019-07-24 02:00:00 24 7 Oeste 18 Oeste 0 993.4 0.8 50
2019-07-24 01:00:00 25.3 10 Oeste 23 Oeste 0 993.4 1.9 48
2019-07-24 00:00:00 27.3 14 Oeste 22 Oeste 0 993.4 2.7 46
2019-07-23 23:00:00 29.1 14 Oeste 23 Noroeste 0 992.6 2.2 44
2019-07-23 22:00:00 30.8 13 Noroeste 27 Noroeste 0 991.5 0.9 39
2019-07-23 21:00:00 33.9 18 Oeste 31 Noroeste 0 990.7 -0.4 26
2019-07-23 20:00:00 36.2 17 Noroeste 27 Noroeste 0 990.4 -1.4 26
2019-07-23 19:00:00 37.5 13 Oeste 28 Noroeste 0 990.6 -1.9 25
2019-07-23 18:00:00 36.8 19 Noroeste 30 Noroeste 0 991.1 -1.9 25
2019-07-23 17:00:00 36.4 15 Noroeste 27 Noroeste 0 991.8 -1.4 24
2019-07-23 16:00:00 35.8 16 Oeste 34 Noroeste 0 992.5 -1.1 25
2019-07-23 15:00:00 35 10 Oeste 24 Oeste 0 993 -0.7 25
2019-07-23 14:00:00 33.9 12 Oeste 25 Oeste 0 993.2 -0.7 27
2019-07-23 13:00:00 32.7 8 Oeste 24 Noroeste 0 993.6 -0.4 30
2019-07-23 12:00:00 30.5 11 Oeste 21 Oeste 0 993.7 -0.4 38
2019-07-23 11:00:00 28.8 6 Oeste 14 Oeste 0 993.9 0.4 41
2019-07-23 10:00:00 25 7 Oeste 13 Sudoeste 0 994 1 52
2019-07-23 09:00:00 22.5 3 Nordeste 9 Oeste 0 994.1 1.3 59
2019-07-23 08:00:00 22.1 5 Oeste 12 Noroeste 0 993.5 1 56
2019-07-23 07:00:00 22.2 3 Sudoeste 8 Noroeste 0 993 0.4 59
2019-07-23 06:00:00 22.1 4 Sudoeste 17 Norte 0 992.8 -0.2 63
2019-07-23 05:00:00 23.6 3 Oeste 11 Oeste 0 992.5 -0.8 56
2019-07-23 04:00:00 24.8 6 Oeste 12 Sudoeste 0 992.6 -0.3 53
2019-07-23 03:00:00 26.3 5 Sudoeste 13 Oeste 0 993 0.2 49
2019-07-23 02:00:00 28 6 Sudoeste 16 Oeste 0 993.3 1.3 48
2019-07-23 01:00:00 29.2 9 Oeste 24 Oeste 0 992.9 1.6 43
2019-07-23 00:00:00 30.4 9 Oeste 27 Oeste 0 992.8 1.9 37
2019-07-22 23:00:00 31.4 14 Oeste 22 Oeste 0 992 1.1 32
2019-07-22 22:00:00 34.2 9 Oeste 18 Noroeste 0 991.3 -0.2 23
2019-07-22 21:00:00 37.5 8 Oeste 16 Oeste 0 990.9 -1.4 19
2019-07-22 20:00:00 39 10 Oeste 19 Oeste 0 990.9 -2 15
2019-07-22 19:00:00 39.4 9 Oeste 20 Noroeste 0 991.5 -2.1 14
2019-07-22 18:00:00 39.5 12 Noroeste 19 Norte 0 992.3 -2 13
2019-07-22 17:00:00 38.9 10 Noroeste 18 Norte 0 992.9 -2.1 15
2019-07-22 16:00:00 38 11 Norte 20 Noroeste 0 993.6 -1.9 18
2019-07-22 15:00:00 36.9 7 Nordeste 27 Este 0 994.3 -1.3 22
2019-07-22 14:00:00 35.5 5 Sudoeste 11 Sudoeste 0 995 -0.8 24
2019-07-22 13:00:00 32.7 4 Noroeste 13 Norte 0 995.5 -0.7 33
2019-07-22 12:00:00 30.6 8 Nordeste 17 Este 0 995.6 -0.7 41
2019-07-22 11:00:00 28 6 Oeste 13 Oeste 0 995.8 0.1 42
2019-07-22 10:00:00 23.7 6 Oeste 12 Oeste 0 996.2 1.1 57
2019-07-22 09:00:00 21.4 4 Oeste 9 Oeste 0 996.3 1.5 63
2019-07-22 08:00:00 19.5 4 Noroeste 9 Oeste 0 995.7 0.7 71
2019-07-22 07:00:00 20.8 4 Oeste 13 Oeste 0 995.1 0.1 64
2019-07-22 06:00:00 21.6 6 Oeste 8 Oeste 0 994.8 -0.6 62
2019-07-22 05:00:00 22.9 3 Oeste 14 Sudoeste 0 995 -0.2 57
2019-07-22 04:00:00 23.8 8 Oeste 14 Sudoeste 0 995 -0.2 55
2019-07-22 03:00:00 24.4 4 Sudoeste 16 Oeste 0 995.4 0.4 53
2019-07-22 02:00:00 25.9 8 Oeste 15 Oeste 0 995.2 0.8 48
2019-07-22 01:00:00 26.9 8 Oeste 15 Oeste 0 995.2 1.6 44
2019-07-22 00:00:00 28 6 Oeste 24 Oeste 0 995 2 42
2019-07-21 23:00:00 30.2 13 Oeste 20 Oeste 0 994.4 1.6 33
2019-07-21 22:00:00 32.8 5 Oeste 14 Oeste 0 993.6 0.8 22
2019-07-21 21:00:00 34.9 10 Oeste 17 Noroeste 0 993 -0.2 22
2019-07-21 20:00:00 37.4 10 Oeste 20 Noroeste 0 992.8 -1 16
2019-07-21 19:00:00 38.3 12 Noroeste 23 Noroeste 0 992.8 -1.5 14
2019-07-21 18:00:00 38.3 13 Oeste 21 Noroeste 0 993.2 -1.8 17
2019-07-21 17:00:00 37.5 15 Oeste 27 Noroeste 0 993.8 -1.8 18
2019-07-21 16:00:00 36.2 18 Noroeste 26 Noroeste 0 994.3 -1.8 17
2019-07-21 15:00:00 32.9 13 Noroeste 25 Noroeste 0 995 -1.2 24
2019-07-21 14:00:00 28.9 10 Oeste 16 Noroeste 0 995.6 -0.6 38
2019-07-21 13:00:00 25.2 3 Sudoeste 10 Sudoeste 0 996.1 -0.1 48
2019-07-21 12:00:00 21.4 5 Oeste 12 Oeste 0 996.2 0.3 61
2019-07-21 11:00:00 19.2 6 Noroeste 14 Oeste 0 996.2 0.7 68
2019-07-21 10:00:00 17.8 9 Oeste 14 Noroeste 0 996.2 1 72
2019-07-21 09:00:00 16.7 9 Oeste 15 Noroeste 0 995.9 0.9 77
2019-07-21 08:00:00 16.3 7 Oeste 10 Oeste 0 995.5 0.8 75
2019-07-21 07:00:00 17.3 4 Sudoeste 15 Oeste 0 995.2 0.4 71
2019-07-21 06:00:00 17.9 9 Oeste 15 Oeste 0 995 0.1 68
2019-07-21 05:00:00 18.7 6 Oeste 18 Oeste 0 994.7 -0.2 68
2019-07-21 04:00:00 19.8 9 Oeste 18 Oeste 0 994.8 0.3 65
2019-07-21 03:00:00 20.9 11 Oeste 20 Oeste 0 994.9 1 61
2019-07-21 02:00:00 22.7 9 Oeste 22 Oeste 0 994.9 1.7 56
2019-07-21 01:00:00 23.8 13 Oeste 28 Noroeste 0 994.5 2.3 55
2019-07-21 00:00:00 25.9 16 Oeste 28 Oeste 0 993.9 2.4 49
2019-07-20 23:00:00 28.6 17 Oeste 32 Oeste 0 993.2 2.1 42
2019-07-20 22:00:00 30.8 13 Oeste 26 Oeste 0 992.2 1.3 37
2019-07-20 21:00:00 34.6 15 Oeste 25 Oeste 0 991.5 0.4 24
2019-07-20 20:00:00 37.5 12 Oeste 24 Noroeste 0 991.1 -0.3 19
2019-07-20 19:00:00 38.3 14 Oeste 26 Noroeste 0 990.9 -0.8 15
2019-07-20 18:00:00 38.6 12 Oeste 23 Noroeste 0 991.1 -1.1 17
2019-07-20 17:00:00 38.1 11 Oeste 20 Oeste 0 991.4 -1.2 18
2019-07-20 16:00:00 36.4 12 Oeste 23 Noroeste 0 991.7 -1.1 19
2019-07-20 15:00:00 34.9 9 Oeste 20 Oeste 0 992.2 -0.6 26
2019-07-20 14:00:00 32.7 9 Oeste 19 Noroeste 0 992.6 -0.3 30
2019-07-20 13:00:00 30.4 10 Noroeste 20 Noroeste 0 992.8 -0.2 36
2019-07-20 12:00:00 28.2 7 Oeste 13 Oeste 0 992.8 0.2 40
2019-07-20 11:00:00 25.1 6 Oeste 16 Noroeste 0 992.9 0.8 51
2019-07-20 10:00:00 23.1 10 Oeste 17 Oeste 0 993 1.5 58
2019-07-20 09:00:00 20.9 6 Sudoeste 14 Sudoeste 0 992.6 1.5 65
2019-07-20 08:00:00 18.5 4 Sudoeste 10 Oeste 0 992.1 1.1 71
2019-07-20 07:00:00 18.8 8 Oeste 14 Oeste 0 991.5 0.7 68
2019-07-20 06:00:00 19 6 Oeste 17 Oeste 0 991.1 0.6 66
2019-07-20 05:00:00 20.7 9 Oeste 19 Sudoeste 0 991 0.6 58
2019-07-20 04:00:00 21.2 13 Oeste 23 Oeste 0 990.8 0.6 57
2019-07-20 03:00:00 22.9 12 Oeste 22 Oeste 0 990.5 0.9 51
2019-07-20 02:00:00 24.2 13 Oeste 22 Oeste 0 990.4 1.3 50
2019-07-20 01:00:00 26.6 14 Oeste 23 Noroeste 0 990.2 1.8 49
2019-07-20 00:00:00 29.1 10 Oeste 22 Noroeste 0 989.6 1.8 37
2019-07-19 23:00:00 29.9 13 Oeste 28 Noroeste 0 989.1 1.5 36
2019-07-19 22:00:00 32.3 24 Noroeste 34 Noroeste 0 988.4 0.7 31
2019-07-19 21:00:00 34.9 18 Oeste 28 Oeste 0 987.8 -0.3 29
2019-07-19 20:00:00 38.2 13 Oeste 26 Noroeste 0 987.6 -1.1 22
2019-07-19 19:00:00 38.8 16 Oeste 29 Noroeste 0 987.7 -1.6 19
2019-07-19 18:00:00 39.3 17 Noroeste 31 Noroeste 0 988.1 -2 16
2019-07-19 17:00:00 38.6 12 Noroeste 27 Oeste 0 988.7 -2.2 19
2019-07-19 16:00:00 38 10 Noroeste 23 Norte 0 989.3 -1.9 20
2019-07-19 15:00:00 36.4 11 Noroeste 20 Norte 0 990.1 -1.6 22
2019-07-19 14:00:00 34.5 6 Oeste 16 Norte 0 990.9 -1.1 31
2019-07-19 13:00:00 32.1 9 Norte 15 Norte 0 991.2 -0.9 38
2019-07-19 12:00:00 29.3 4 Noroeste 10 Oeste 0 991.7 -0.2 46
2019-07-19 11:00:00 25.7 3 Sudoeste 10 Noroeste 0 992 0.6 54
2019-07-19 10:00:00 22.7 6 Noroeste 11 Noroeste 0 992.1 0.9 65
2019-07-19 09:00:00 20.7 8 Noroeste 10 Noroeste 0 991.9 0.8 71
2019-07-19 08:00:00 19.1 5 Oeste 10 Oeste 0 991.4 0.4 75
2019-07-19 07:00:00 19.2 7 Oeste 13 Oeste 0 991.2 -0.1 75
2019-07-19 06:00:00 20.1 8 Oeste 18 Oeste 0 991.1 -0.4 70
2019-07-19 05:00:00 20.7 10 Oeste 16 Oeste 0 991 -0.5 67
2019-07-19 04:00:00 21.5 9 Oeste 19 Oeste 0 991.3 0 63
2019-07-19 03:00:00 23.6 10 Oeste 19 Oeste 0 991.5 0.6 54
2019-07-19 02:00:00 25 10 Oeste 17 Sudoeste 0 991.5 0.9 48
2019-07-19 01:00:00 26.4 9 Oeste 21 Noroeste 0 991.3 1.3 43
2019-07-19 00:00:00 27.4 13 Oeste 20 Noroeste 0 990.9 1.3 40